KADS/ADS METAR and TAF weather

Enter ICAO airport designator
Station Type Date Time Source
KADS METAR 2020/09/22 15:47 UTC NOAA

KADS 221547Z 07007KT 3SM DZ OVC006 21/20 A3008


Station Type Date Time Source
KADS Decoded METAR 2020/09/22 15:47 UTC NOAA

Dallas / Addison Airport, TX, United States (KADS) 32-58N 096-50W
Sep 22, 2020 - 11:47 AM EDT / 2020.09.22 1547 UTC
Wind: from the ENE (070 degrees) at 8 MPH (7 KT):0
Visibility: 3 mile(s):0
Sky conditions: overcast
Weather: drizzle
Temperature: 69 F (21 C)
Dew Point: 68 F (20 C)
Relative Humidity: 94%
Pressure (altimeter): 30.08 in. Hg (1018 hPa)
ob: KADS 221547Z 07007KT 3SM DZ OVC006 21/20 A3008
cycle: 16

Station Type Date Time Source
KADS TAF UTC NOAA

Error!

Example: see airport list